Time;durP1;ratioP1;P1;durP2;ratioP2;P2;SDS_P1;SDS_P2;PMS_P1;PMS_P2;Temp;Humidity;BMP_temperature;BMP_pressure;BME280_temperature;BME280_humidity;BME280_pressure;Samples;Min_cycle;Max_cycle;Signal;HPM_P1;HPM_P2
2024/04/12 00:01:04;;;;;;;;;;;;;;;18.05;62.34;103202.47;5367924;26;95603;-88
2024/04/12 00:03:31;;;;;;;25.02;14.13;;;;;;;18.09;62.15;103198.13;5342307;26;94797;-88
2024/04/12 00:06:00;;;;;;;23.45;13.13;;;;;;;18.06;62.27;103198.09;5386480;26;95009;-87
2024/04/12 00:08:28;;;;;;;27.08;13.57;;;;;;;18.05;62.22;103191.03;5341601;26;98338;-88
2024/04/12 00:10:59;;;;;;;23.00;12.85;;;;;;;18.03;62.06;103185.72;5346168;26;98648;-88
2024/04/12 00:13:31;;;;;;;20.50;12.25;;;;;;;18.02;61.88;103185.69;5324956;26;94868;-88
2024/04/12 00:15:59;;;;;;;19.83;11.45;;;;;;;18.00;61.96;103184.75;5365926;26;94945;-88
2024/04/12 00:18:28;;;;;;;17.38;10.20;;;;;;;17.98;61.70;103178.56;5332475;26;98725;-88
2024/04/12 00:20:58;;;;;;;15.75;9.57;;;;;;;17.96;61.80;103180.28;5337960;26;95811;-88
2024/04/12 00:23:27;;;;;;;17.58;9.10;;;;;;;17.93;61.80;103167.91;5369620;26;94917;-89
2024/04/12 00:25:59;;;;;;;16.30;10.10;;;;;;;17.93;61.54;103172.31;5333150;26;95106;-88
2024/04/12 00:28:32;;;;;;;15.18;9.13;;;;;;;17.89;61.68;103163.44;5306347;26;98675;-88
2024/04/12 00:30:59;;;;;;;18.45;8.63;;;;;;;17.87;61.54;103166.03;5305081;26;98506;-88
2024/04/12 00:33:31;;;;;;;14.52;8.57;;;;;;;17.87;61.70;103171.31;5336440;26;94833;-88
2024/04/12 00:36:13;;;;;;;17.13;9.68;;;;;;;17.86;61.72;103168.66;5301752;26;94917;-89
2024/04/12 00:38:43;;;;;;;15.10;7.65;;;;;;;17.84;61.63;103165.06;5323518;26;98482;-88
2024/04/12 00:41:20;;;;;;;14.55;8.70;;;;;;;17.82;61.55;103167.66;5299103;26;98310;-88
2024/04/12 00:43:48;;;;;;;14.50;7.60;;;;;;;17.79;61.71;103150.88;5302695;26;94851;-88
2024/04/12 00:46:24;;;;;;;12.60;7.32;;;;;;;17.76;61.46;103153.47;5330084;26;94977;-88
2024/04/12 00:48:54;;;;;;;15.38;8.88;;;;;;;17.75;61.57;103143.78;5307352;26;98738;-87
2024/04/12 00:51:27;;;;;;;16.17;9.40;;;;;;;17.74;61.60;103136.72;5314108;26;95896;-88
2024/04/12 00:53:57;;;;;;;13.93;7.80;;;;;;;17.73;61.62;103127.03;5363066;26;94721;-88
2024/04/12 00:56:27;;;;;;;14.77;8.98;;;;;;;17.72;61.49;103125.22;5305559;26;94917;-88
2024/04/12 00:58:55;;;;;;;12.55;7.75;;;;;;;17.69;61.61;103126.94;5339613;26;98756;-89
2024/04/12 01:01:22;;;;;;;12.05;7.60;;;;;;;17.67;61.50;103120.75;5310454;26;98403;-89
2024/04/12 01:03:49;;;;;;;14.32;8.30;;;;;;;17.65;61.66;103126.88;5311270;26;94710;-89
2024/04/12 01:06:24;;;;;;;12.27;6.97;;;;;;;17.63;61.75;103118.00;5341305;26;94637;-89
2024/04/12 01:08:54;;;;;;;14.00;7.97;;;;;;;17.64;61.78;103118.06;5303662;26;98599;-89
2024/04/12 01:11:21;;;;;;;12.82;6.88;;;;;;;17.63;61.84;103113.66;5327015;26;98785;-88
2024/04/12 01:13:50;;;;;;;11.23;6.78;;;;;;;17.62;61.80;103116.25;5310703;26;94791;-88
2024/04/12 01:16:15;;;;;;;14.25;7.97;;;;;;;17.61;61.87;103120.66;5340797;26;94892;-89
2024/04/12 01:18:44;;;;;;;13.20;7.13;;;;;;;17.61;61.84;103111.81;5310891;26;98390;-89
2024/04/12 01:21:10;;;;;;;15.57;8.45;;;;;;;17.59;61.78;103105.63;5329264;26;98904;-88
2024/04/12 01:23:48;;;;;;;16.50;9.27;;;;;;;17.57;61.74;103107.34;5340881;26;94768;-88
2024/04/12 01:26:17;;;;;;;13.55;8.35;;;;;;;17.58;61.76;103099.47;5290948;26;94829;-84
2024/04/12 01:28:43;;;;;;;13.50;7.53;;;;;;;17.59;61.82;103101.22;5306536;26;97890;-84
2024/04/12 01:31:17;;;;;;;11.55;6.70;;;;;;;17.58;61.84;103104.75;5333511;26;98004;-84
2024/04/12 01:33:48;;;;;;;11.73;7.78;;;;;;;17.58;61.68;103098.59;5331232;26;94662;-84
2024/04/12 01:36:18;;;;;;;11.90;7.15;;;;;;;17.57;61.88;103108.22;5333976;26;95026;-84
2024/04/12 01:38:53;;;;;;;15.45;7.07;;;;;;;17.57;61.82;103115.28;5327040;26;96208;-84
2024/04/12 01:41:32;;;;;;;14.77;7.80;;;;;;;17.56;61.82;103117.03;5318401;26;98623;-84
2024/04/12 01:44:04;;;;;;;13.48;7.28;;;;;;;17.56;61.80;103127.59;5314223;26;94876;-84
2024/04/12 01:46:31;;;;;;;13.75;8.77;;;;;;;17.55;61.62;103131.06;5325949;26;94939;-84
2024/04/12 01:48:57;;;;;;;13.48;8.15;;;;;;;17.55;61.65;103120.50;5326874;26;97316;-84
2024/04/12 01:51:34;;;;;;;11.65;6.63;;;;;;;17.54;61.73;103120.47;5332854;26;95499;-84
2024/04/12 01:54:13;;;;;;;16.02;9.25;;;;;;;17.50;61.93;103116.88;5317179;26;95510;-84
2024/04/12 01:56:47;;;;;;;14.77;8.40;;;;;;;17.47;62.04;103108.94;5327082;26;95403;-84
2024/04/12 01:59:21;;;;;;;15.43;8.57;;;;;;;17.48;61.90;103108.94;5322230;26;95698;-85
2024/04/12 02:01:48;;;;;;;15.75;8.80;;;;;;;17.49;61.94;103115.13;5300608;26;98776;-84
2024/04/12 02:04:21;;;;;;;15.60;9.20;;;;;;;17.48;61.74;103110.69;5309861;26;95008;-84
2024/04/12 02:06:48;;;;;;;18.85;8.80;;;;;;;17.47;61.99;103108.94;5323564;26;94983;-84
2024/04/12 02:09:14;;;;;;;17.45;8.40;;;;;;;17.48;62.05;103102.78;5301750;26;96573;-84
2024/04/12 02:11:53;;;;;;;15.88;9.02;;;;;;;17.48;62.05;103106.31;5325430;26;97952;-84
2024/04/12 02:14:18;;;;;;;15.85;7.80;;;;;;;17.50;61.60;103107.25;5324912;26;94828;-85
2024/04/12 02:16:44;;;;;;;16.33;7.70;;;;;;;17.50;61.98;103116.88;5325653;26;95004;-84
2024/04/12 02:19:10;;;;;;;16.83;8.00;;;;;;;17.51;61.80;103118.69;5327806;26;98492;-85
2024/04/12 02:21:40;;;;;;;13.30;7.00;;;;;;;17.49;61.75;103112.50;5301086;26;98517;-84
2024/04/12 02:24:08;;;;;;;12.52;5.65;;;;;;;17.47;61.81;103107.19;5298892;26;94867;-83
2024/04/12 02:26:35;;;;;;;11.15;5.93;;;;;;;17.48;61.65;103101.03;5333956;26;94796;-84
2024/04/12 02:29:04;;;;;;;10.95;6.50;;;;;;;17.48;61.90;103108.06;5319053;26;96063;-85
2024/04/12 02:31:31;;;;;;;9.70;5.90;;;;;;;17.46;61.80;103115.94;5334543;26;95778;-85
2024/04/12 02:33:58;;;;;;;8.68;5.00;;;;;;;17.46;61.90;103110.66;5333880;26;95276;-85
2024/04/12 02:36:26;;;;;;;10.15;6.50;;;;;;;17.46;62.09;103120.34;5334340;26;94945;-85
2024/04/12 02:38:51;;;;;;;9.25;5.00;;;;;;;17.45;61.81;103106.25;5321318;26;97762;-85
2024/04/12 02:41:17;;;;;;;11.77;5.78;;;;;;;17.43;61.79;103105.34;5311881;26;96604;-84
2024/04/12 02:43:55;;;;;;;8.90;5.65;;;;;;;17.44;61.96;103103.59;5307240;26;94727;-85
2024/04/12 02:46:22;;;;;;;8.80;5.13;;;;;;;17.44;61.78;103100.97;5308618;26;94939;-84
2024/04/12 02:48:48;;;;;;;8.80;5.22;;;;;;;17.46;62.01;103104.50;5334639;26;98326;-84
2024/04/12 02:51:17;;;;;;;9.05;5.20;;;;;;;17.45;61.85;103098.34;5334905;26;95791;-85
2024/04/12 02:53:44;;;;;;;9.50;4.95;;;;;;;17.45;61.97;103103.63;5329759;26;94720;-84
2024/04/12 02:56:12;;;;;;;9.15;6.28;;;;;;;17.46;61.86;103102.75;5297241;26;94971;-84
2024/04/12 02:58:45;;;;;;;7.72;5.05;;;;;;;17.43;61.99;103101.78;5332143;26;95656;-84
2024/04/12 03:01:16;;;;;;;9.90;5.00;;;;;;;17.44;62.01;103103.59;5300874;26;98982;-84
2024/04/12 03:03:46;;;;;;;8.07;4.63;;;;;;;17.43;61.89;103089.53;5306122;26;94812;-85
2024/04/12 03:06:22;;;;;;;9.43;4.95;;;;;;;17.43;61.85;103084.25;5298120;26;95122;-84
2024/04/12 03:08:49;;;;;;;7.78;4.43;;;;;;;17.44;61.94;103083.38;5306751;26;98895;-84
2024/04/12 03:11:21;;;;;;;9.02;5.03;;;;;;;17.44;61.86;103085.13;5336525;26;98125;-83
2024/04/12 03:13:50;;;;;;;10.38;5.07;;;;;;;17.43;61.70;103088.59;5337030;26;94886;-84
2024/04/12 03:16:17;;;;;;;8.32;4.30;;;;;;;17.42;61.95;103093.00;5327183;26;95190;-84
2024/04/12 03:18:46;;;;;;;8.00;4.32;;;;;;;17.43;62.07;103086.88;5301918;26;96569;-84
2024/04/12 03:21:15;;;;;;;7.82;5.15;;;;;;;17.44;62.06;103088.66;5304357;26;94983;-84
2024/04/12 03:23:43;;;;;;;;;;;;;;;17.43;61.89;103080.69;5351593;26;95194;-84
2024/04/12 03:26:16;;;;;;;10.63;5.35;;;;;;;17.46;61.90;103083.41;5336553;26;94914;-84
2024/04/12 03:28:45;;;;;;;10.55;5.30;;;;;;;17.43;62.14;103078.97;5330128;26;98193;-84
2024/04/12 03:31:11;;;;;;;9.52;5.53;;;;;;;17.40;62.09;103078.91;5301330;26;98332;-84
2024/04/12 03:33:47;;;;;;;8.90;5.38;;;;;;;17.40;62.19;103078.91;5300200;26;94950;-84
2024/04/12 03:36:26;;;;;;;10.93;5.78;;;;;;;17.40;62.17;103062.19;5299062;26;94947;-84
2024/04/12 03:41:57;;;;;;;11.48;5.65;;;;;;;17.39;62.20;103056.00;5367951;26;95872;-84
2024/04/12 03:44:30;;;;;;;9.90;6.03;;;;;;;17.39;62.26;103056.00;5336399;26;95015;-84
2024/04/12 03:46:57;;;;;;;10.55;5.00;;;;;;;17.40;62.40;103057.78;5337668;26;95007;-84
2024/04/12 03:49:23;;;;;;;10.20;5.78;;;;;;;17.40;62.34;103063.06;5341817;26;95684;-89
2024/04/12 03:51:56;;;;;;;12.27;6.07;;;;;;;17.39;62.09;103065.69;5332708;26;98520;-89
2024/04/12 03:54:23;;;;;;;11.90;4.68;;;;;;;17.39;62.23;103060.41;5299011;26;94799;-88
2024/04/12 03:56:50;;;;;;;10.30;6.00;;;;;;;17.39;62.49;103055.13;5313952;26;94974;-88
2024/04/12 03:59:20;;;;;;;10.05;5.45;;;;;;;17.37;62.37;103047.19;5341933;26;95993;-88
2024/04/12 04:01:47;;;;;;;9.50;6.18;;;;;;;17.39;62.41;103057.75;5313497;26;98906;-89
2024/04/12 04:04:17;;;;;;;10.50;4.80;;;;;;;17.42;62.53;103055.19;5370368;26;94996;-89
2024/04/12 04:07:06;;;;;;;9.25;4.93;;;;;;;17.44;62.33;103056.09;5342785;26;94909;-88
2024/04/12 04:09:32;;;;;;;10.73;5.38;;;;;;;17.46;62.27;103055.25;5341541;26;95890;-87
2024/04/12 04:11:58;;;;;;;9.02;5.00;;;;;;;17.47;62.14;103045.63;5339393;26;97821;-88
2024/04/12 04:14:27;;;;;;;9.55;4.82;;;;;;;17.49;62.42;103046.53;5342852;26;94754;-88
2024/04/12 04:16:55;;;;;;;;;;;;;;;17.46;62.08;103057.00;5286322;26;95092;-89
2024/04/12 04:19:30;;;;;;;8.90;4.93;;;;;;;17.50;62.25;103051.84;5306242;26;95788;-88
2024/04/12 04:22:04;;;;;;;8.02;5.18;;;;;;;17.48;62.20;103055.28;5284904;26;98669;-88
2024/04/12 04:24:34;;;;;;;10.32;4.97;;;;;;;17.48;62.35;103055.28;5331560;26;94736;-88
2024/04/12 04:27:02;;;;;;;9.63;4.82;;;;;;;17.49;62.22;103052.69;5309041;26;94967;-89
2024/04/12 04:29:28;;;;;;;8.90;5.95;;;;;;;17.50;62.18;103057.13;5360824;26;95658;-89
2024/04/12 04:31:54;;;;;;;8.85;4.68;;;;;;;17.51;62.24;103053.59;5339133;26;95880;-89
2024/04/12 04:34:20;;;;;;;11.30;6.13;;;;;;;17.51;62.32;103052.72;5333201;26;94838;-88
2024/04/12 04:36:55;;;;;;;10.25;5.07;;;;;;;17.50;62.26;103049.19;5319780;26;94918;-88
2024/04/12 04:39:23;;;;;;;10.93;5.32;;;;;;;17.51;62.03;103050.09;5328034;26;98760;-89
2024/04/12 04:41:53;;;;;;;11.10;6.05;;;;;;;17.50;62.22;103043.00;5363773;26;95904;-88
2024/04/12 04:44:21;;;;;;;11.02;5.50;;;;;;;17.50;62.26;103041.28;5300512;26;94840;-89
2024/04/12 04:46:50;;;;;;;13.82;7.05;;;;;;;17.50;62.18;103036.00;5334063;26;94887;-90
2024/04/12 04:49:18;;;;;;;11.13;6.72;;;;;;;17.49;61.95;103035.97;5321251;26;95903;-84
2024/04/12 04:51:45;;;;;;;12.48;6.22;;;;;;;17.46;62.13;103036.78;5299774;26;97477;-84
2024/04/12 04:54:11;;;;;;;12.25;6.75;;;;;;;17.46;62.14;103033.28;5330484;26;94816;-84
2024/04/12 04:56:41;;;;;;;11.40;5.80;;;;;;;17.43;61.87;103035.84;5299104;26;95012;-84
2024/04/12 04:59:16;;;;;;;12.02;6.53;;;;;;;17.44;62.11;103040.28;5296498;26;98882;-85
2024/04/12 05:01:48;;;;;;;12.13;7.03;;;;;;;17.44;61.96;103040.28;5295255;26;95934;-85
2024/04/12 05:04:18;;;;;;;14.18;8.02;;;;;;;17.42;61.76;103044.63;5325544;26;94869;-85
2024/04/12 05:06:44;;;;;;;12.43;7.18;;;;;;;17.43;62.23;103044.66;5328038;26;95092;-84
2024/04/12 05:09:11;;;;;;;14.70;8.32;;;;;;;17.47;62.12;103038.59;5328927;26;95590;-85
2024/04/12 05:11:38;;;;;;;16.08;8.63;;;;;;;17.48;62.11;103036.81;5299300;26;96005;-85
2024/04/12 05:14:13;;;;;;;13.45;8.25;;;;;;;17.49;61.99;103033.34;5299251;26;94824;-85
2024/04/12 05:16:46;;;;;;;14.52;8.23;;;;;;;17.47;62.05;103038.59;5322081;26;94905;-84
2024/04/12 05:19:13;;;;;;;13.70;8.45;;;;;;;17.50;62.03;103032.47;5308525;26;96824;-84
2024/04/12 05:21:42;;;;;;;10.73;6.30;;;;;;;17.51;61.99;103028.97;5298634;26;95993;-84
2024/04/12 05:24:11;;;;;;;14.45;8.20;;;;;;;17.54;62.09;103036.03;5317584;26;94917;-85
2024/04/12 05:26:41;;;;;;;13.10;7.53;;;;;;;17.56;62.10;103034.31;5298519;26;95020;-84
2024/04/12 05:29:10;;;;;;;16.08;9.48;;;;;;;17.56;62.06;103032.59;5320786;26;95850;-84
2024/04/12 05:31:36;;;;;;;17.17;10.23;;;;;;;17.59;61.88;103032.63;5298878;26;97632;-84
2024/04/12 05:34:04;;;;;;;15.32;8.48;;;;;;;17.60;61.99;103039.69;5319185;26;94937;-83
2024/04/12 05:36:32;;;;;;;14.82;9.70;;;;;;;17.59;62.04;103035.25;5318099;26;94925;-83
2024/04/12 05:39:08;;;;;;;15.98;9.73;;;;;;;17.61;61.96;103030.94;5291707;26;97688;-82
2024/04/12 05:41:36;;;;;;;16.45;9.77;;;;;;;17.62;62.04;103030.06;5316472;26;95959;-84
2024/04/12 05:44:01;;;;;;;15.52;9.27;;;;;;;17.63;61.91;103028.28;5326994;26;95976;-84
2024/04/12 05:46:28;;;;;;;15.52;9.65;;;;;;;17.62;61.64;103035.31;5317510;26;94906;-84
2024/04/12 05:48:54;;;;;;;15.25;9.65;;;;;;;17.62;61.70;103029.16;5289290;26;97809;-83
2024/04/12 05:51:19;;;;;;;14.90;9.77;;;;;;;17.61;61.64;103030.03;5297788;26;97923;-84
2024/04/12 05:53:51;;;;;;;14.35;9.25;;;;;;;17.58;61.72;103030.88;5324284;26;94922;-84
2024/04/12 05:56:25;;;;;;;15.95;8.88;;;;;;;17.59;61.81;103031.75;5292710;26;95045;-84
2024/04/12 05:58:51;;;;;;;13.85;7.70;;;;;;;17.59;61.86;103034.38;5327262;26;95476;-83
2024/04/12 06:01:17;;;;;;;16.00;9.57;;;;;;;17.60;61.85;103039.69;5317899;26;98577;-84
2024/04/12 06:03:45;;;;;;;19.10;10.13;;;;;;;17.60;61.99;103039.69;5293724;26;94963;-84
2024/04/12 06:06:13;;;;;;;16.67;10.00;;;;;;;17.61;61.91;103030.94;5331126;26;95066;-85
2024/04/12 06:08:41;;;;;;;16.30;8.70;;;;;;;17.64;62.05;103035.34;5333560;26;97789;-84
2024/04/12 06:11:09;;;;;;;17.33;8.57;;;;;;;17.66;62.17;103039.81;5328509;26;95518;-85
2024/04/12 06:13:40;;;;;;;15.10;8.73;;;;;;;17.70;61.95;103046.03;5316210;26;94857;-84
2024/04/12 06:16:07;;;;;;;16.95;8.18;;;;;;;17.74;62.03;103042.59;5299818;26;94810;-84
2024/04/12 06:18:33;;;;;;;15.63;8.93;;;;;;;17.76;61.65;103035.59;5300261;26;98389;-84
2024/04/12 06:21:01;;;;;;;15.63;8.77;;;;;;;17.79;62.09;103042.66;5329084;26;97574;-85
2024/04/12 06:23:29;;;;;;;17.77;9.85;;;;;;;17.83;61.80;103055.94;5319386;26;94987;-84
2024/04/12 06:25:58;;;;;;;13.82;9.07;;;;;;;17.87;62.05;103047.25;5327719;26;95167;-85
2024/04/12 06:28:24;;;;;;;16.55;9.50;;;;;;;17.95;61.94;103049.13;5299114;26;94962;-85
2024/04/12 06:30:56;;;;;;;18.05;8.88;;;;;;;17.99;61.73;103053.63;5300103;26;98523;-84
2024/04/12 06:33:24;;;;;;;16.77;8.55;;;;;;;18.03;61.86;103050.16;5320466;26;94935;-83
2024/04/12 06:35:52;;;;;;;18.23;8.32;;;;;;;18.08;61.77;103052.00;5329754;26;95063;-83
2024/04/12 06:38:22;;;;;;;16.23;9.23;;;;;;;18.13;61.75;103052.09;5298406;26;97568;-84
2024/04/12 06:40:57;;;;;;;18.15;9.23;;;;;;;18.16;61.77;103045.94;5359755;26;97633;-83
2024/04/12 06:43:23;;;;;;;18.30;9.73;;;;;;;18.21;61.30;103052.19;5299750;26;94957;-83
2024/04/12 06:46:07;;;;;;;18.92;8.43;;;;;;;18.22;61.48;103048.72;5294493;26;94926;-84
2024/04/12 06:48:36;;;;;;;16.55;9.02;;;;;;;18.25;61.39;103057.56;5313241;26;97732;-84
2024/04/12 06:51:05;;;;;;;15.35;8.23;;;;;;;18.28;61.42;103054.06;5325638;26;95566;-84
2024/04/12 06:53:32;;;;;;;16.27;9.02;;;;;;;18.31;61.08;103053.25;5303204;26;95025;-84
2024/04/12 06:56:06;;;;;;;16.33;9.70;;;;;;;18.32;61.06;103058.53;5333069;26;96331;-82
2024/04/12 06:58:38;;;;;;;18.73;9.45;;;;;;;18.33;61.18;103054.16;5346811;26;98100;-83
2024/04/12 07:01:05;;;;;;;17.15;9.18;;;;;;;18.36;61.01;103054.19;5325807;26;95519;-82
2024/04/12 07:03:34;;;;;;;20.08;10.77;;;;;;;18.38;61.21;103058.66;5319037;26;95681;-82
2024/04/12 07:06:01;;;;;;;19.60;9.60;;;;;;;18.40;61.25;103062.19;5321940;26;94939;-83
2024/04/12 07:08:30;;;;;;;16.85;10.35;;;;;;;18.46;61.14;103067.56;5338371;26;97748;-83
2024/04/12 07:10:56;;;;;;;16.83;8.32;;;;;;;18.52;61.00;103072.06;5333094;26;95503;-83
2024/04/12 07:13:25;;;;;;;19.83;9.00;;;;;;;18.56;61.10;103062.44;5331047;26;94921;-83
2024/04/12 07:15:51;;;;;;;18.08;9.45;;;;;;;18.58;60.89;103058.06;5347631;26;94953;-84
2024/04/12 07:18:17;;;;;;;16.55;8.80;;;;;;;18.61;60.87;103063.41;5338871;26;95885;-85
2024/04/12 07:20:44;;;;;;;19.33;8.32;;;;;;;18.65;60.80;103055.50;5306375;26;97535;-84
2024/04/12 07:23:16;;;;;;;19.40;9.30;;;;;;;18.69;60.60;103056.44;5329267;26;95120;-85
2024/04/12 07:25:45;;;;;;;15.63;8.88;;;;;;;18.72;59.85;103052.97;5300173;26;95102;-85
2024/04/12 07:28:14;;;;;;;17.15;8.40;;;;;;;18.70;60.25;103052.03;5295983;26;95961;-83
2024/04/12 07:30:44;;;;;;;19.27;8.82;;;;;;;18.70;60.23;103057.31;5290265;26;97845;-83
2024/04/12 07:33:12;;;;;;;13.57;7.32;;;;;;;18.71;59.95;103061.75;5321190;26;94895;-83
2024/04/12 07:35:48;;;;;;;13.30;7.57;;;;;;;18.70;59.53;103063.53;5329421;26;95222;-83
2024/04/12 07:38:14;;;;;;;14.77;7.13;;;;;;;18.72;59.72;103068.84;5291569;26;97684;-84
2024/04/12 07:40:42;;;;;;;15.40;7.43;;;;;;;18.72;59.51;103064.41;5315684;26;95854;-86
2024/04/12 07:43:08;;;;;;;;;;;;;;;18.71;60.25;103064.41;5327769;26;94918;-85
2024/04/12 07:45:37;;;;;;;15.68;8.32;;;;;;;18.81;60.01;103068.94;5338472;26;94909;-84
2024/04/12 07:50:54;;;;;;;14.93;6.88;;;;;;;18.86;59.89;103077.88;5319762;26;97952;-84
2024/04/12 07:53:23;;;;;;;16.92;7.68;;;;;;;18.94;60.04;103064.75;5335229;26;95043;-84
2024/04/12 07:55:58;;;;;;;15.05;6.53;;;;;;;19.03;59.95;103048.97;5328782;26;94859;-87
2024/04/12 07:58:34;;;;;;;12.25;5.97;;;;;;;19.13;59.38;103064.09;5336989;26;97728;-86
2024/04/12 08:01:09;;;;;;;14.48;7.38;;;;;;;19.20;59.02;103054.50;5315773;26;98671;-84
2024/04/12 08:03:43;;;;;;;12.18;6.38;;;;;;;19.25;58.68;103046.59;5300280;26;94810;-83
2024/04/12 08:06:36;;;;;;;14.82;6.55;;;;;;;19.32;59.00;103045.78;5322613;26;94999;-84
2024/04/12 08:09:05;;;;;;;13.43;6.35;;;;;;;19.38;58.61;103040.59;5323042;26;98590;-85
2024/04/12 08:11:41;;;;;;;15.43;7.30;;;;;;;19.46;58.38;103046.81;5287856;26;98582;-84
2024/04/12 08:14:20;;;;;;;10.75;5.72;;;;;;;19.58;59.01;103044.31;5323252;26;95900;-84
2024/04/12 08:16:46;;;;;;;15.43;6.53;;;;;;;19.76;58.51;103040.97;5325313;26;95325;-86
2024/04/12 08:19:21;;;;;;;13.63;7.07;;;;;;;19.89;57.95;103039.34;5327364;26;98687;-86
2024/04/12 08:21:47;;;;;;;;;;;;;;;20.02;58.86;103044.72;5318323;26;97749;-83
2024/04/12 08:24:22;;;;;;;15.13;5.40;;;;;;;20.21;57.83;103044.00;5330515;26;94792;-82
2024/04/12 08:26:51;;;;;;;15.63;5.50;;;;;;;20.34;57.39;103042.34;5301645;26;95017;-85
2024/04/12 08:29:26;;;;;;;14.20;5.03;;;;;;;20.51;57.08;103053.03;5300945;26;97501;-83
2024/04/12 08:32:27;;;;;;;12.70;6.20;;;;;;;20.67;56.88;103046.97;5295631;26;97808;-86
2024/04/12 08:34:49;;;;;;;14.00;5.25;;;;;;;20.88;56.56;103040.00;5311581;26;94848;-83
2024/04/12 08:37:17;;;;;;;11.27;5.32;;;;;;;21.00;56.01;103049.78;5324069;26;96806;-84
2024/04/12 08:39:52;;;;;;;17.20;5.30;;;;;;;21.07;55.17;103055.13;5320260;26;97778;-83
2024/04/12 08:42:18;;;;;;;16.58;6.22;;;;;;;21.13;54.38;103066.66;5299110;26;95661;-84
2024/04/12 08:44:47;;;;;;;10.95;5.45;;;;;;;21.07;53.92;103063.09;5296403;26;94925;-84
2024/04/12 08:47:32;;;;;;;14.98;5.95;;;;;;;21.03;53.92;103066.63;5279998;26;95152;-86
2024/04/12 08:50:03;;;;;;;12.73;4.90;;;;;;;21.08;54.45;103067.50;5329983;26;95685;-85
2024/04/12 08:55:30;;;;;;;18.45;6.20;;;;;;;21.35;54.51;103055.19;5337708;26;95045;-86
2024/04/12 08:58:00;;;;;;;12.52;5.65;;;;;;;21.57;54.59;103055.28;5331947;26;95034;-86
2024/04/12 09:00:31;;;;;;;11.27;5.72;;;;;;;21.76;54.40;103057.06;5299099;26;97462;-84
2024/04/12 09:03:02;;;;;;;11.98;4.60;;;;;;;21.97;53.89;103058.88;5318364;26;96723;-85
2024/04/12 09:05:27;;;;;;;11.20;5.35;;;;;;;22.16;53.57;103051.78;5298204;26;94897;-85
2024/04/12 09:08:03;;;;;;;10.98;4.63;;;;;;;22.31;53.00;103050.03;5299715;26;94935;-85
2024/04/12 09:10:35;;;;;;;11.38;3.78;;;;;;;22.40;52.04;103058.84;5300279;26;95992;-84
2024/04/12 09:13:08;;;;;;;11.88;4.70;;;;;;;22.49;51.75;103043.78;5281546;26;97099;-85
2024/04/12 09:15:43;;;;;;;9.38;4.55;;;;;;;22.56;51.51;103053.50;5330059;26;95000;-84
2024/04/12 09:18:15;;;;;;;11.45;4.55;;;;;;;22.64;50.94;103054.38;5290573;26;95010;-84
2024/04/12 09:20:44;;;;;;;11.65;4.68;;;;;;;22.79;51.34;103054.31;5269302;26;98816;-86
2024/04/12 09:23:15;;;;;;;13.85;4.00;;;;;;;22.96;51.33;103053.38;5327686;26;95710;-85
2024/04/12 09:25:41;;;;;;;9.65;4.15;;;;;;;23.19;51.28;103051.53;5317691;26;94906;-85
2024/04/12 09:28:13;;;;;;;11.73;3.85;;;;;;;23.41;50.77;103048.75;5298071;26;95093;-85
2024/04/12 09:33:27;;;;;;;8.75;4.25;;;;;;;23.65;49.51;103053.00;5311959;26;95979;-85
2024/04/12 09:36:05;;;;;;;11.35;4.40;;;;;;;23.65;48.40;103058.31;5283449;26;94853;-85
2024/04/12 09:38:32;;;;;;;8.77;4.50;;;;;;;23.55;48.18;103052.19;5296820;26;95125;-86
2024/04/12 09:41:13;;;;;;;10.68;4.75;;;;;;;23.50;48.54;103050.47;5329534;26;95008;-84
2024/04/12 09:43:47;;;;;;;9.52;3.70;;;;;;;23.46;47.86;103038.03;5299502;26;98872;-85
2024/04/12 09:46:22;;;;;;;8.27;3.20;;;;;;;23.37;47.59;103049.66;5327545;26;94843;-86
2024/04/12 10:38:46;;;;;;;5.80;2.40;;;;;;;24.00;46.99;103022.56;5330562;26;95966;-87
2024/04/12 10:41:14;;;;;;;7.95;2.92;;;;;;;24.14;46.74;103027.75;5328313;26;94752;-85
2024/04/12 10:43:41;;;;;;;7.05;2.22;;;;;;;24.21;46.31;103032.13;5281717;26;94949;-88
2024/04/12 10:46:10;;;;;;;5.95;2.60;;;;;;;24.26;45.93;103018.75;5362268;26;94867;-88
2024/04/12 10:48:42;;;;;;;5.70;1.58;;;;;;;24.27;45.65;103028.53;5303817;26;96139;-86
2024/04/12 10:51:14;;;;;;;4.30;1.63;;;;;;;24.25;45.64;103033.00;5335165;26;94971;-89
2024/04/12 10:53:41;;;;;;;3.55;1.67;;;;;;;24.26;45.41;103022.31;5329767;26;94951;-87
2024/04/12 10:56:18;;;;;;;5.15;1.75;;;;;;;24.35;45.59;103028.44;5300033;26;96967;-87
2024/04/12 10:58:52;;;;;;;5.18;1.73;;;;;;;24.49;45.79;103022.06;5328576;26;96729;-85
2024/04/12 11:01:23;;;;;;;7.55;2.20;;;;;;;24.63;45.11;103018.38;5304121;26;94916;-86
2024/04/12 11:03:56;;;;;;;4.45;1.95;;;;;;;24.67;44.89;103014.75;5330507;26;95065;-86
2024/04/12 11:06:31;;;;;;;4.95;1.92;;;;;;;24.71;44.76;103011.16;5333912;26;98475;-88
2024/04/12 11:09:06;;;;;;;4.28;1.60;;;;;;;24.73;44.43;103012.03;5301838;26;97886;-89
2024/04/12 11:11:38;;;;;;;;;;;;;;;24.76;46.14;103011.09;5305779;26;94906;-88
2024/04/12 11:14:07;;;;;;;4.15;2.17;;;;;;;24.96;45.35;103008.19;5307687;26;94824;-88
2024/04/12 11:33:19;;;;;;;3.65;1.33;;;;;;;25.19;43.32;102999.84;5336412;26;94835;-88
2024/04/12 11:35:45;;;;;;;4.22;1.50;;;;;;;25.26;43.70;102991.75;5305038;26;94995;-89
2024/04/12 11:38:13;;;;;;;3.08;0.85;;;;;;;25.36;43.27;103000.47;5328020;26;95792;-89
2024/04/12 11:40:40;;;;;;;4.35;1.05;;;;;;;25.36;42.56;102989.78;5294654;26;95770;-90
2024/04/12 11:43:06;;;;;;;6.28;1.52;;;;;;;25.24;41.96;102996.22;5325441;26;94875;-90
2024/04/12 11:45:34;;;;;;;3.72;1.23;;;;;;;25.10;42.15;103000.84;5330396;26;95394;-90
2024/04/12 11:48:00;;;;;;;2.90;1.10;;;;;;;25.02;42.59;102997.41;5299130;26;98340;-92
2024/04/12 11:50:26;;;;;;;2.50;0.90;;;;;;;25.03;43.12;102993.84;5334050;26;94939;-92
2024/04/12 11:52:54;;;;;;;3.13;1.35;;;;;;;25.09;42.61;102986.59;5331637;26;95976;-91
2024/04/12 11:55:21;;;;;;;2.15;0.73;;;;;;;25.13;42.51;102992.78;5327645;26;94766;-90
2024/04/12 11:57:46;;;;;;;2.95;1.40;;;;;;;25.13;42.34;102992.78;5333829;26;96800;-91
2024/04/12 12:00:15;;;;;;;2.63;1.00;;;;;;;25.09;42.26;102991.06;5298862;26;96801;-88
2024/04/12 12:02:44;;;;;;;3.45;1.20;;;;;;;25.07;42.53;102995.56;5335052;26;94828;-92
2024/04/12 12:05:16;;;;;;;3.53;0.90;;;;;;;25.11;43.25;102997.25;5325011;26;94906;-90
2024/04/12 12:07:46;;;;;;;4.57;1.40;;;;;;;25.18;42.36;103008.75;5305323;26;95959;-90
2024/04/12 12:10:12;;;;;;;4.28;1.13;;;;;;;25.11;41.58;103001.72;5332410;26;98589;-91
2024/04/12 12:12:39;;;;;;;3.38;1.23;;;;;;;25.03;41.98;102999.19;5302636;26;94855;-89
2024/04/12 12:15:09;;;;;;;2.83;1.23;;;;;;;25.01;41.68;102996.53;5331403;26;94953;-88
2024/04/12 12:17:34;;;;;;;2.85;0.95;;;;;;;24.92;41.39;102994.00;5334317;26;97719;-90
2024/04/12 12:20:01;;;;;;;3.30;1.23;;;;;;;24.82;41.83;102995.88;5333279;26;95838;-93
2024/04/12 12:22:30;;;;;;;5.30;1.10;;;;;;;24.80;41.95;102981.69;5281300;26;94955;-91
2024/04/12 12:24:56;;;;;;;2.88;1.20;;;;;;;24.80;42.02;102981.69;5322480;26;94827;-89
2024/04/12 12:27:23;;;;;;;4.32;1.08;;;;;;;24.79;41.78;102974.56;5302780;26;95681;-89
2024/04/12 12:29:53;;;;;;;4.47;1.27;;;;;;;24.82;42.55;102973.66;5333351;26;95912;-88
2024/04/12 12:32:20;;;;;;;3.40;1.45;;;;;;;24.96;42.17;102968.13;5330873;26;94797;-89
2024/04/12 12:34:47;;;;;;;2.85;1.17;;;;;;;25.05;42.04;102973.34;5332302;26;94924;-89
2024/04/12 12:37:12;;;;;;;2.22;0.82;;;;;;;25.09;41.54;102969.72;5331291;26;95497;-88
2024/04/12 12:39:38;;;;;;;1.90;1.20;;;;;;;25.07;41.71;102958.16;5321567;26;98357;-92
2024/04/12 12:42:13;;;;;;;4.25;1.05;;;;;;;25.13;41.65;102962.53;5320857;26;94714;-88
2024/04/12 12:44:38;;;;;;;2.40;1.02;;;;;;;25.20;41.38;102965.06;5287034;26;94912;-89
2024/04/12 12:47:12;;;;;;;3.42;1.00;;;;;;;25.21;41.02;102952.63;5302863;26;97592;-87
2024/04/12 12:49:46;;;;;;;3.25;1.45;;;;;;;25.16;40.85;102970.50;5332366;26;95951;-89
2024/04/12 12:52:11;;;;;;;3.72;1.23;;;;;;;25.12;40.69;102964.34;5302088;26;94897;-87